Harrisburg, PA (17123)

5:55 AM EST on November 22, 2014 (GMT -0500)
Bellevue Park | Change Station
CLOSE
Current Station
Personal Weather Station
Location: Harrisburg, PA
Elevation: 498 ft
Nearby Weather Stations

Elev 498 ft 40.27 °N, 76.85 °W | Updated 5 seconds ago

Clear
Clear
18.3 °F
Feels Like 18 °F
N
0.0
Wind Variable Wind from East
Gusts 0.0 mph

Today
High -- | Low -- °F
--% Chance of Precip.
Yesterday
High -- | Low -- °F
Precip. -- in
7:01 AM 4:45 PM
Waning Crescent, 0% visible
Pressure 30.51 in
Visibility 9.0 miles
Clouds Clear
Windchill 18 °F
Dew Point 13 °F
Humidity 79%
Rainfall 0.00 in
Snow Depth Not available.
UV 0 out of 12
Pollen .10 out of 12
Air Quality Not available.
Flu Activity Not available.
METAR KMDT 220956Z 00000KT 9SM CLR M08/M11 A3050 RMK AO2 SLP332 T10831111

More Conditions Fewer Conditions

Pressure 30.51 in
Visibility 9.0 miles
Clouds Clear
Windchill 18 °F
Dew Point 13 °F
Humidity 79%
Rainfall 0.00 in
Snow Depth Not available.
UV 0 out of 12
Pollen .10 out of 12
Air Quality Not available.
Flu Activity Not available.
METAR KMDT 220956Z 00000KT 9SM CLR M08/M11 A3050 RMK AO2 SLP332 T10831111

More Conditions Fewer Conditions

10-Day Weather Forecast

Almanac

Astronomy

Nov. 22, 2014 Rise Set
Actual Time
Civil Twilight
Nautical Twilight
Astronomical Twilight
Moon
Length of Visible Light
Length of Day
Tomorrow will be .
, % of the Moon is Illuminated

Today's Extremes

State Highs State Lows

Community

WunderPhotos

Upload Photos

1,772,805 photos uploaded!

WunderBlogs® & News

Nearby

Air Quality

  Air Quality AQ Index Pollutant
Not available.

Snow Depth

Station Depth Elevation

Earthquake Activity

City Distance Mag. Time & Date
Minimum magnitude displayed is 2.5.

Coastal Water Temperatures

Place Temperature

Nearby Weather Stations